Martha's Vineyard Express — WDC5128 — position and weather

sailwx.info

Track history (hours):
 
Tides and Currents Weather Stations Pressure Air Temp Water Temp Dewpoint Dewpoint Depression Visibility Wind Speed Wind Dir Waves Ship Positions

Martha's Vineyard Express

Owner: Interlake Leasing IV, Stamford, CT. More information available from US FCC via Universal Licensing System and Coast Guard Vessel Documentation Center.

Last reported at 2017-Nov-17 23:00 UTC. Time now 2017-Nov-17 23:16 UTC.
Position N 40°32' W 074°02'.

; draft 2.1 m.

Type: High speed craft. MMSI: 367036190.

Date/timePositionNaut miles runAvg speedWind from/ knotsBaromVisibWave heightAir tempDewpointWater temp
2017-Nov-17 23:00N 40°32' W 074°02'1122.3
2017-Nov-17 22:31N 40°43' W 074°02'2 3.7
2017-Nov-17 22:01N 40°41' W 074°02'1224.5
2017-Nov-17 21:30N 40°29' W 074°02'2 4.4
2017-Nov-17 21:00N 40°31' W 074°02'1224.6
2017-Nov-17 20:31N 40°43' W 074°02'1 2.6
2017-Nov-17 20:00N 40°44' W 074°02'2 4.3
2017-Nov-17 19:30N 40°42' W 074°00'0 0.0
2017-Nov-17 19:00N 40°42' W 074°00'0 0.0
2017-Nov-17 18:30N 40°42' W 074°00'0 0.0
2017-Nov-17 18:01N 40°42' W 074°00'0 0.0
2017-Nov-17 17:31N 40°42' W 074°00'0 0.0
2017-Nov-17 17:00N 40°42' W 074°00'0 0.0
2017-Nov-17 16:30N 40°42' W 074°00'0 0.0
2017-Nov-17 16:00N 40°42' W 074°00'0 0.0
2017-Nov-17 15:31N 40°42' W 074°00'0 0.0
2017-Nov-17 15:00N 40°42' W 074°00'0 0.0
2017-Nov-17 14:31N 40°42' W 074°00'0 0.0
2017-Nov-17 14:00N 40°42' W 074°00'2 4.1
2017-Nov-17 13:30N 40°41' W 074°02'1224.1
2017-Nov-17 13:00N 40°28' W 074°02'0 0.6
2017-Nov-17 12:30N 40°28' W 074°02'1325.5
2017-Nov-17 12:01N 40°41' W 074°02'1 1.8
2017-Nov-17 11:30N 40°42' W 074°02'1325.3
2017-Nov-17 11:00N 40°29' W 074°02'4 7.8
2017-Nov-17 10:29N 40°25' W 074°00'1 1.0
2017-Nov-17 10:00N 40°25' W 073°60'0 0.0
2017-Nov-17 09:30N 40°25' W 073°60'0 0.0
2017-Nov-17 09:00N 40°25' W 073°60'0 0.0
2017-Nov-17 08:30N 40°25' W 073°60'0 0.0
2017-Nov-17 08:00N 40°25' W 073°60'0 0.0
2017-Nov-17 07:30N 40°25' W 073°60'0 0.0
2017-Nov-17 07:00N 40°25' W 073°60'0 0.0
2017-Nov-17 06:29N 40°25' W 073°60'0 0.0
2017-Nov-17 06:00N 40°25' W 073°60'0 0.0
2017-Nov-17 05:28N 40°25' W 073°60'0 0.0
2017-Nov-17 04:59N 40°25' W 073°60'0 0.0
2017-Nov-17 04:30N 40°25' W 073°60'0 0.0
2017-Nov-17 04:00N 40°25' W 073°60'0 0.0
2017-Nov-17 03:29N 40°25' W 073°60'0 0.0
2017-Nov-17 03:00N 40°25' W 073°60'0 0.0
2017-Nov-17 02:29N 40°25' W 073°60'0 0.0
2017-Nov-17 01:57N 40°25' W 073°60'0 0.0
2017-Nov-17 01:30N 40°25' W 073°60'0 0.0
2017-Nov-17 00:54N 40°25' W 073°60'0 0.0
2017-Nov-17 00:25N 40°25' W 073°60'0 0.0
2017-Nov-16 23:57N 40°25' W 073°60'0 0.2
2017-Nov-16 23:30N 40°25' W 073°60'612.7
2017-Nov-16 23:00N 40°31' W 074°02'1224.7
2017-Nov-16 22:31N 40°43' W 074°02'1 1.8
2017-Nov-16 22:01N 40°42' W 074°02'1326.3
2017-Nov-16 21:30N 40°29' W 074°02'2 3.6
2017-Nov-16 21:00N 40°31' W 074°02'1224.6
2017-Nov-16 20:30N 40°43' W 074°02'1 2.0
2017-Nov-16 20:01N 40°44' W 074°01'2 3.6
2017-Nov-16 19:30N 40°42' W 074°00'0 0.0
2017-Nov-16 19:00N 40°42' W 074°00'0 0.0
2017-Nov-16 18:31N 40°42' W 074°00'0 0.0
2017-Nov-16 18:01N 40°42' W 074°00'0 0.0
2017-Nov-16 17:31N 40°42' W 074°00'0 0.0
2017-Nov-16 17:00N 40°42' W 074°00'0 0.0
2017-Nov-16 16:30N 40°42' W 074°00'0 0.0
2017-Nov-16 16:01N 40°42' W 074°00'0 0.0
2017-Nov-16 15:31N 40°42' W 074°00'0 0.0
2017-Nov-16 15:00N 40°42' W 074°00'0 0.0
2017-Nov-16 14:30N 40°42' W 074°00'0 0.0
2017-Nov-16 14:01N 40°42' W 074°00'1 2.7
2017-Nov-16 13:31N 40°43' W 074°02'1223.4
2017-Nov-16 13:00N 40°31' W 074°02'3 6.3
2017-Nov-16 12:30N 40°28' W 074°02'1325.9
2017-Nov-16 12:01N 40°40' W 074°03'2 5.0
2017-Nov-16 11:30N 40°43' W 074°02'1224.4
2017-Nov-16 11:00N 40°30' W 074°02'6 8.3
2017-Nov-16 10:15N 40°25' W 073°60'0 0.0
2017-Nov-16 09:51N 40°25' W 073°60'0 0.0
2017-Nov-16 09:28N 40°25' W 073°60'0 0.0
2017-Nov-16 08:56N 40°25' W 073°60'0 0.0
2017-Nov-16 08:30N 40°25' W 073°60'0 0.0
2017-Nov-16 07:55N 40°25' W 073°60'0 0.0
2017-Nov-16 07:07N 40°25' W 073°60'0 0.0
2017-Nov-16 06:53N 40°25' W 073°60'0 0.0
2017-Nov-16 06:29N 40°25' W 073°60'0 0.0
2017-Nov-16 05:57N 40°25' W 073°60'0 0.0
2017-Nov-16 05:30N 40°25' W 073°60'0 0.0
2017-Nov-16 03:17N 40°25' W 073°60'0 0.0
2017-Nov-16 03:00N 40°25' W 073°60'0 0.0
2017-Nov-16 02:24N 40°25' W 073°60'0 0.0
2017-Nov-16 01:41N 40°25' W 073°60'0 0.0
2017-Nov-15 23:55N 40°25' W 073°60'0 0.2
2017-Nov-15 23:30N 40°25' W 073°60'612.3
2017-Nov-15 23:00N 40°30' W 074°02'1225.1
2017-Nov-15 22:31N 40°43' W 074°02'0 0.7
2017-Nov-15 22:01N 40°43' W 074°02'1427.2
2017-Nov-15 21:30N 40°29' W 074°02'3 4.9
2017-Nov-15 21:00N 40°31' W 074°02'1123.6
2017-Nov-15 20:31N 40°43' W 074°02'1 2.5
2017-Nov-15 20:01N 40°44' W 074°01'2 4.0
2017-Nov-15 19:30N 40°42' W 074°00'0 0.0
2017-Nov-15 19:00N 40°42' W 074°00'0 0.0
2017-Nov-15 18:30N 40°42' W 074°00'0 0.0
2017-Nov-15 18:00N 40°42' W 074°00'0 0.0
2017-Nov-15 17:30N 40°42' W 074°00'0 0.0
2017-Nov-15 17:00N 40°42' W 074°00'0 0.0
2017-Nov-15 16:30N 40°42' W 074°00'0 0.0
2017-Nov-15 16:00N 40°42' W 074°00'0 0.0
2017-Nov-15 15:30N 40°42' W 074°00'0 0.0
2017-Nov-15 15:00N 40°42' W 074°00'0 0.0
2017-Nov-15 14:31N 40°42' W 074°00'0 0.0
2017-Nov-15 14:00N 40°42' W 074°00'1 2.5
2017-Nov-15 13:30N 40°43' W 074°02'1224.0
2017-Nov-15 13:00N 40°31' W 074°02'4 6.9
2017-Nov-15 12:30N 40°27' W 074°02'1326.5
2017-Nov-15 12:01N 40°40' W 074°03'3 5.6
2017-Nov-15 11:31N 40°43' W 074°02'1224.3
2017-Nov-15 11:00N 40°31' W 074°02'612.4
2017-Nov-15 10:30N 40°25' W 073°60'0 0.0
2017-Nov-15 10:00N 40°25' W 073°60'0 0.0
2017-Nov-15 09:30N 40°25' W 073°60'0 0.0
2017-Nov-15 09:00N 40°25' W 073°60'0 0.0
2017-Nov-15 08:30N 40°25' W 073°60'0 0.0
2017-Nov-15 08:00N 40°25' W 073°60'0 0.0
2017-Nov-15 07:30N 40°25' W 073°60'0 0.0
2017-Nov-15 07:00N 40°25' W 073°60'0 0.0
2017-Nov-15 06:30N 40°25' W 073°60'0 0.0
2017-Nov-15 06:00N 40°25' W 073°60'0 0.0
2017-Nov-15 05:30N 40°25' W 073°60'0 0.0
2017-Nov-15 05:00N 40°25' W 073°60'0 0.0
2017-Nov-15 04:30N 40°25' W 073°60'0 0.0
2017-Nov-15 04:00N 40°25' W 073°60'0 0.0
2017-Nov-15 03:30N 40°25' W 073°60'0 0.0
2017-Nov-15 03:00N 40°25' W 073°60'0 0.0
2017-Nov-15 02:30N 40°25' W 073°60'0 0.0
2017-Nov-15 02:00N 40°25' W 073°60'0 0.0
2017-Nov-15 01:30N 40°25' W 073°60'0 0.0
2017-Nov-15 01:00N 40°25' W 073°60'0 0.0
2017-Nov-15 00:30N 40°25' W 073°60'0 0.1
2017-Nov-15 00:00N 40°25' W 073°60'0 0.0
2017-Nov-14 23:30N 40°25' W 073°60'611.7
2017-Nov-14 23:00N 40°30' W 074°02'1325.6
2017-Nov-14 22:30N 40°43' W 074°02'1 1.6
2017-Nov-14 22:00N 40°42' W 074°02'1426.6
2017-Nov-14 21:30N 40°28' W 074°02'3 5.1
2017-Nov-14 21:00N 40°31' W 074°02'1224.1
2017-Nov-14 20:30N 40°43' W 074°02'1 2.6
2017-Nov-14 20:01N 40°44' W 074°02'2 4.2
2017-Nov-14 19:30N 40°42' W 074°00'0 0.0
2017-Nov-14 19:00N 40°42' W 074°00'0 0.0
2017-Nov-14 18:30N 40°42' W 074°00'0 0.0
2017-Nov-14 18:00N 40°42' W 074°00'0 0.0
2017-Nov-14 17:30N 40°42' W 074°00'0 0.0
2017-Nov-14 17:00N 40°42' W 074°00'0 0.0
2017-Nov-14 16:30N 40°42' W 074°00'0 0.0
2017-Nov-14 16:00N 40°42' W 074°00'0 0.0
2017-Nov-14 15:30N 40°42' W 074°00'0 0.0
2017-Nov-14 15:00N 40°42' W 074°00'0 0.0
2017-Nov-14 14:30N 40°42' W 074°00'0 0.0
2017-Nov-14 14:00N 40°42' W 074°00'1 2.6
2017-Nov-14 13:31N 40°43' W 074°02'1224.0
2017-Nov-14 13:00N 40°31' W 074°02'4 7.7
2017-Nov-14 12:30N 40°27' W 074°02'1427.7
2017-Nov-14 12:01N 40°40' W 074°02'2 5.0
2017-Nov-14 11:30N 40°38' W 074°03'1325.5
2017-Nov-14 11:00N 40°25' W 074°02'2 3.6
2017-Nov-14 10:30N 40°25' W 073°60'0 0.0
2017-Nov-13 23:32N 40°25' W 073°60'0 1.4
2017-Nov-13 23:30N 40°25' W 073°60'713.8
2017-Nov-13 23:00N 40°31' W 074°02'1223.2
2017-Nov-13 22:30N 40°43' W 074°02'1 1.4
2017-Nov-13 22:01N 40°42' W 074°02'18 0.9
2017-Nov-13 02:00N 40°25' W 073°60'0 0.0
2017-Nov-13 01:30N 40°25' W 073°60'0 0.0
2017-Nov-13 01:00N 40°25' W 073°60'0 0.0
2017-Nov-13 00:30N 40°25' W 073°60'0 0.0
2017-Nov-12 23:54N 40°25' W 073°60'0 0.0
2017-Nov-12 23:28N 40°25' W 073°60'0 0.0
2017-Nov-12 22:57N 40°25' W 073°60'0 0.0
2017-Nov-12 22:30N 40°25' W 073°60'0 0.0
2017-Nov-12 21:20N 40°25' W 073°60'0 0.0
2017-Nov-12 21:00N 40°25' W 073°60'0 0.0
2017-Nov-12 20:28N 40°25' W 073°60'0 0.0
2017-Nov-12 19:56N 40°25' W 073°60'0 0.0
2017-Nov-12 19:27N 40°25' W 073°60'0 0.0
2017-Nov-12 19:00N 40°25' W 073°60'0 0.0
2017-Nov-12 18:24N 40°25' W 073°60'0 0.0
2017-Nov-12 17:55N 40°25' W 073°60'0 0.0
2017-Nov-12 17:30N 40°25' W 073°60'0 0.0
2017-Nov-12 16:59N 40°25' W 073°60'0 0.0
2017-Nov-12 16:23N 40°25' W 073°60'0 0.0
2017-Nov-12 15:57N 40°25' W 073°60'0 0.0
2017-Nov-12 15:29N 40°25' W 073°60'0 0.0
2017-Nov-12 15:00N 40°25' W 073°60'0 0.0
2017-Nov-12 14:30N 40°25' W 073°60'0 0.0
2017-Nov-12 14:00N 40°25' W 073°60'0 0.0
2017-Nov-12 13:30N 40°25' W 073°60'0 0.0
2017-Nov-12 13:00N 40°25' W 073°60'0 0.0
2017-Nov-12 12:30N 40°25' W 073°60'0 0.0
2017-Nov-12 12:00N 40°25' W 073°60'0 0.0
2017-Nov-12 11:30N 40°25' W 073°60'0 0.0
2017-Nov-12 11:00N 40°25' W 073°60'0 0.0
2017-Nov-12 10:30N 40°25' W 073°60'0 0.0
2017-Nov-12 10:00N 40°25' W 073°60'0 0.0
2017-Nov-12 09:30N 40°25' W 073°60'0 0.0
2017-Nov-12 09:00N 40°25' W 073°60'0 0.0
2017-Nov-12 08:30N 40°25' W 073°60'0 0.0
2017-Nov-12 08:00N 40°25' W 073°60'0 0.0
2017-Nov-12 07:29N 40°25' W 073°60'0 0.0
2017-Nov-12 07:00N 40°25' W 073°60'0 0.0
2017-Nov-12 06:30N 40°25' W 073°60'0 0.0
2017-Nov-12 06:00N 40°25' W 073°60'0 0.0
2017-Nov-12 05:30N 40°25' W 073°60'0 0.0
2017-Nov-12 05:00N 40°25' W 073°60'0 0.0
2017-Nov-12 04:30N 40°25' W 073°60'0 0.0
2017-Nov-12 04:00N 40°25' W 073°60'0 0.0
2017-Nov-12 03:30N 40°25' W 073°60'0 0.0
2017-Nov-12 03:00N 40°25' W 073°60'0 0.0
2017-Nov-12 02:30N 40°25' W 073°60'0 0.0
2017-Nov-12 01:59N 40°25' W 073°60'0 0.0
2017-Nov-12 01:30N 40°25' W 073°60'0 0.0
2017-Nov-12 01:00N 40°25' W 073°60'0 0.0
2017-Nov-12 00:30N 40°25' W 073°60'0 0.0
2017-Nov-12 00:00N 40°25' W 073°60'0 0.0
2017-Nov-11 23:29N 40°25' W 073°60'0 0.0
2017-Nov-11 23:00N 40°25' W 073°60'0 0.0
2017-Nov-11 22:30N 40°25' W 073°60'0 0.0
2017-Nov-11 21:59N 40°25' W 073°60'0 0.0
2017-Nov-11 21:30N 40°25' W 073°60'0 0.0
2017-Nov-11 20:59N 40°25' W 073°60'0 0.0
2017-Nov-11 20:29N 40°25' W 073°60'0 0.0
2017-Nov-11 19:57N 40°25' W 073°60'0 0.0
2017-Nov-11 18:50N 40°25' W 073°60'0 0.0
2017-Nov-11 18:28N 40°25' W 073°60'0 0.0
2017-Nov-11 18:01N 40°25' W 073°60'0 0.0
2017-Nov-11 17:28N 40°25' W 073°60'0 0.0
2017-Nov-11 16:55N 40°25' W 073°60'0 0.0
2017-Nov-11 16:22N 40°25' W 073°60'0 0.0
2017-Nov-11 16:00N 40°25' W 073°60'0 0.0
2017-Nov-11 15:30N 40°25' W 073°60'0 0.0
2017-Nov-11 15:00N 40°25' W 073°60'0 0.0
2017-Nov-11 14:30N 40°25' W 073°60'0 0.0
2017-Nov-11 14:00N 40°25' W 073°60'0 0.0
2017-Nov-11 13:30N 40°25' W 073°60'0 0.0
2017-Nov-11 12:59N 40°25' W 073°60'0 0.0
2017-Nov-11 12:07N 40°25' W 073°60'0 0.0
2017-Nov-11 12:00N 40°25' W 073°60'0 0.0
2017-Nov-11 11:15N 40°25' W 073°60'0 0.0
2017-Nov-11 10:21N 40°25' W 073°60'0 0.0
2017-Nov-11 09:47N 40°25' W 073°60'0 0.0
2017-Nov-11 09:19N 40°25' W 073°60'0 0.0
2017-Nov-11 08:17N 40°25' W 073°60'0 0.0
2017-Nov-11 07:15N 40°25' W 073°60'0 0.0
2017-Nov-11 07:01N 40°25' W 073°60'0 0.0
2017-Nov-11 06:29N 40°25' W 073°60'0 0.0
2017-Nov-11 06:00N 40°25' W 073°60'0 0.0
2017-Nov-11 05:31N 40°25' W 073°60'0 0.0
2017-Nov-11 04:48N 40°25' W 073°60'0 0.0
2017-Nov-11 04:31N 40°25' W 073°60'0 0.0
2017-Nov-11 03:59N 40°25' W 073°60'0 0.0
2017-Nov-11 03:29N 40°25' W 073°60'0 0.0
2017-Nov-11 02:59N 40°25' W 073°60'0 0.0
2017-Nov-11 02:01N 40°25' W 073°60'0 0.0
2017-Nov-11 01:28N 40°25' W 073°60'0 0.0
2017-Nov-11 00:57N 40°25' W 073°60'0 0.0
2017-Nov-11 00:29N 40°25' W 073°60'0 0.0
2017-Nov-10 23:59N 40°25' W 073°60'0 0.7
2017-Nov-10 23:30N 40°25' W 074°00'611.6
2017-Nov-10 23:00N 40°30' W 074°02'1224.9
2017-Nov-10 22:30N 40°43' W 074°02'2 3.2
2017-Nov-10 22:01N 40°41' W 074°02'1324.7
2017-Nov-10 21:30N 40°29' W 074°02'2 4.6
2017-Nov-10 21:00N 40°31' W 074°02'1224.2
2017-Nov-10 20:30N 40°43' W 074°02'1 2.7
2017-Nov-10 20:00N 40°42' W 074°00'0 0.0
2017-Nov-10 19:30N 40°42' W 074°00'0 0.0
2017-Nov-10 19:00N 40°42' W 074°00'0 0.0
2017-Nov-10 18:30N 40°42' W 074°00'0 0.0
2017-Nov-10 18:00N 40°42' W 074°00'0 0.0
2017-Nov-10 17:30N 40°42' W 074°00'0 0.0
2017-Nov-10 17:00N 40°42' W 074°00'0 0.0
2017-Nov-10 16:30N 40°42' W 074°00'0 0.0
2017-Nov-10 16:00N 40°42' W 074°00'0 0.0
2017-Nov-10 15:30N 40°42' W 074°00'0 0.0
2017-Nov-10 15:00N 40°42' W 074°00'0 0.0
2017-Nov-10 14:31N 40°42' W 074°00'0 0.0
2017-Nov-10 14:00N 40°42' W 074°00'1 2.0
2017-Nov-10 13:31N 40°42' W 074°02'1223.6
2017-Nov-10 13:00N 40°30' W 074°02'5 9.7
2017-Nov-10 12:30N 40°26' W 074°02'1428.3
2017-Nov-10 12:01N 40°40' W 074°03'2 4.9
2017-Nov-10 11:31N 40°42' W 074°02'1223.6
2017-Nov-10 11:00N 40°30' W 074°02'6 1.0
2017-Nov-10 05:35N 40°25' W 073°60'0 0.0
2017-Nov-10 05:24N 40°25' W 073°60'0 0.0
2017-Nov-10 04:45N 40°25' W 073°60'0 0.0
2017-Nov-10 04:29N 40°25' W 073°60'0 0.0
2017-Nov-10 03:58N 40°25' W 073°60'0 0.0
2017-Nov-10 03:30N 40°25' W 073°60'0 0.0
2017-Nov-10 03:00N 40°25' W 073°60'0 0.0
2017-Nov-10 02:30N 40°25' W 073°60'0 0.0
2017-Nov-10 02:00N 40°25' W 073°60'0 0.0
2017-Nov-10 01:30N 40°25' W 073°60'0 0.0
2017-Nov-10 01:00N 40°25' W 073°60'0 0.0
2017-Nov-10 00:30N 40°25' W 073°60'0 0.0
2017-Nov-10 00:00N 40°25' W 073°60'0 0.1
2017-Nov-09 23:30N 40°25' W 073°60'611.3
2017-Nov-09 23:00N 40°30' W 074°02'1326.0
2017-Nov-09 22:30N 40°43' W 074°02'2 3.4
2017-Nov-09 22:01N 40°41' W 074°02'1325.1
2017-Nov-09 21:30N 40°28' W 074°02'3 5.3
2017-Nov-09 21:00N 40°31' W 074°02'1224.3
2017-Nov-09 20:30N 40°43' W 074°02'1 2.6
2017-Nov-09 20:00N 40°42' W 074°00'0 0.0
2017-Nov-09 19:30N 40°42' W 074°00'0 0.0
2017-Nov-09 19:00N 40°42' W 074°00'0 0.0
2017-Nov-09 18:30N 40°42' W 074°00'0 0.0
2017-Nov-09 18:00N 40°42' W 074°00'0 0.0
2017-Nov-09 17:30N 40°42' W 074°00'0 0.0
2017-Nov-09 17:00N 40°42' W 074°00'0 0.0
2017-Nov-09 16:30N 40°42' W 074°00'0 0.0
2017-Nov-09 16:00N 40°42' W 074°00'0 0.0
2017-Nov-09 15:30N 40°42' W 074°00'0 0.0
2017-Nov-09 15:00N 40°42' W 074°00'0 0.0
2017-Nov-09 14:30N 40°42' W 074°00'0 0.0
2017-Nov-09 14:00N 40°42' W 074°00'1 2.1
2017-Nov-09 13:31N 40°43' W 074°02'1324.7
2017-Nov-09 12:59N 40°30' W 074°02'4 7.6
2017-Nov-09 12:30N 40°26' W 074°02'1428.2
2017-Nov-09 12:01N 40°40' W 074°03'3 5.1
2017-Nov-09 11:31N 40°42' W 074°02'1224.0
2017-Nov-09 11:00N 40°30' W 074°02'611.8
2017-Nov-09 10:30N 40°25' W 073°60'0 0.0
2017-Nov-09 09:59N 40°25' W 073°60'0 0.0
2017-Nov-09 09:23N 40°25' W 073°60'0 0.0
2017-Nov-09 08:55N 40°25' W 073°60'0 0.0
2017-Nov-09 08:24N 40°25' W 073°60'0 0.0
2017-Nov-09 07:51N 40°25' W 073°60'0 0.0
2017-Nov-09 07:21N 40°25' W 073°60'0 0.0
2017-Nov-09 06:55N 40°25' W 073°60'0 0.0
2017-Nov-09 06:30N 40°25' W 073°60'0 0.0
2017-Nov-09 01:12N 40°25' W 073°60'0 0.0
2017-Nov-09 01:00N 40°25' W 073°60'0 0.0
2017-Nov-09 00:30N 40°25' W 073°60'0 0.0
2017-Nov-09 00:00N 40°25' W 073°60'0 0.4
2017-Nov-08 23:30N 40°25' W 073°60'714.7
2017-Nov-08 23:00N 40°32' W 074°02'1122.4
2017-Nov-08 22:31N 40°43' W 074°02'2 3.7
2017-Nov-08 22:01N 40°41' W 074°02'1224.8
2017-Nov-08 21:30N 40°29' W 074°02'1 2.2
2017-Nov-08 21:00N 40°30' W 074°02'1326.5
2017-Nov-08 20:31N 40°43' W 074°02'1 1.6
2017-Nov-08 20:01N 40°42' W 074°02'1 1.7
2017-Nov-08 19:30N 40°42' W 074°00'0 0.0
2017-Nov-08 19:00N 40°42' W 074°00'0 0.0
2017-Nov-08 18:30N 40°42' W 074°00'0 0.0
2017-Nov-08 18:00N 40°42' W 074°00'0 0.0
2017-Nov-08 17:30N 40°42' W 074°00'0 0.0
2017-Nov-08 17:00N 40°42' W 074°00'0 0.0
2017-Nov-08 16:30N 40°42' W 074°00'0 0.0
2017-Nov-08 16:00N 40°42' W 074°00'0 0.0
2017-Nov-08 15:30N 40°42' W 074°00'0 0.0
2017-Nov-08 15:00N 40°42' W 074°00'0 0.0
2017-Nov-08 14:30N 40°42' W 074°00'0 0.0
2017-Nov-08 14:00N 40°42' W 074°00'1 2.3
2017-Nov-08 13:31N 40°43' W 074°02'1224.5
2017-Nov-08 13:00N 40°30' W 074°02'4 8.0
2017-Nov-08 12:30N 40°26' W 074°02'1427.5
2017-Nov-08 12:01N 40°40' W 074°03'2 3.7
2017-Nov-08 11:31N 40°42' W 074°02'1224.0
2017-Nov-08 11:00N 40°30' W 074°02'5 9.9
2017-Nov-08 10:28N 40°25' W 073°60'0 0.0
2017-Nov-08 10:00N 40°25' W 073°60'0 0.0
2017-Nov-08 09:30N 40°25' W 073°60'0 0.0
2017-Nov-08 09:00N 40°25' W 073°60'0 0.0
2017-Nov-08 08:30N 40°25' W 073°60'0 0.0
2017-Nov-08 08:00N 40°25' W 073°60'0 0.0
2017-Nov-08 07:28N 40°25' W 073°60'0 0.0
2017-Nov-08 06:59N 40°25' W 073°60'0 0.0
2017-Nov-08 06:28N 40°25' W 073°60'0 0.0
2017-Nov-08 04:55N 40°25' W 073°60'0 0.0
2017-Nov-08 04:19N 40°25' W 073°60'0 0.0
2017-Nov-08 03:57N 40°25' W 073°60'0 0.0
2017-Nov-08 03:15N 40°25' W 073°60'0 0.0
2017-Nov-08 02:36N 40°25' W 073°60'0 0.0
2017-Nov-08 02:23N 40°25' W 073°60'0 0.0
2017-Nov-08 00:45N 40°25' W 073°60'0 0.0
2017-Nov-08 00:30N 40°25' W 073°60'0 0.0
2017-Nov-08 00:00N 40°25' W 073°60'1 2.7
2017-Nov-07 23:30N 40°25' W 074°01'  
Track history (hours):
 
Tides and Currents Weather Stations Pressure Air Temp Water Temp Dewpoint Dewpoint Depression Visibility Wind Speed Wind Dir Waves Ship Positions

Martha's Vineyard Express

Owner: Interlake Leasing IV, Stamford, CT. More information available from US FCC via Universal Licensing System and Coast Guard Vessel Documentation Center.

Last reported at 2017-Nov-17 23:00 UTC. Time now 2017-Nov-17 23:16 UTC.
Position N 40°32' W 074°02'.

; draft 2.1 m.

Type: High speed craft. MMSI: 367036190.

Date/timePositionNaut miles runAvg speedWind from/ knotsBaromVisibWave heightAir tempDewpointWater temp
2017-Nov-17 23:00N 40°32' W 074°02'1122.3
2017-Nov-17 22:31N 40°43' W 074°02'2 3.7
2017-Nov-17 22:01N 40°41' W 074°02'1224.5
2017-Nov-17 21:30N 40°29' W 074°02'2 4.4
2017-Nov-17 21:00N 40°31' W 074°02'1224.6
2017-Nov-17 20:31N 40°43' W 074°02'1 2.6
2017-Nov-17 20:00N 40°44' W 074°02'2 4.3
2017-Nov-17 19:30N 40°42' W 074°00'0 0.0
2017-Nov-17 19:00N 40°42' W 074°00'0 0.0
2017-Nov-17 18:30N 40°42' W 074°00'0 0.0
2017-Nov-17 18:01N 40°42' W 074°00'0 0.0
2017-Nov-17 17:31N 40°42' W 074°00'0 0.0
2017-Nov-17 17:00N 40°42' W 074°00'0 0.0
2017-Nov-17 16:30N 40°42' W 074°00'0 0.0
2017-Nov-17 16:00N 40°42' W 074°00'0 0.0
2017-Nov-17 15:31N 40°42' W 074°00'0 0.0
2017-Nov-17 15:00N 40°42' W 074°00'0 0.0
2017-Nov-17 14:31N 40°42' W 074°00'0 0.0
2017-Nov-17 14:00N 40°42' W 074°00'2 4.1
2017-Nov-17 13:30N 40°41' W 074°02'1224.1
2017-Nov-17 13:00N 40°28' W 074°02'0 0.6
2017-Nov-17 12:30N 40°28' W 074°02'1325.5
2017-Nov-17 12:01N 40°41' W 074°02'1 1.8
2017-Nov-17 11:30N 40°42' W 074°02'1325.3
2017-Nov-17 11:00N 40°29' W 074°02'4 7.8
2017-Nov-17 10:29N 40°25' W 074°00'1 1.0
2017-Nov-17 10:00N 40°25' W 073°60'0 0.0
2017-Nov-17 09:30N 40°25' W 073°60'0 0.0
2017-Nov-17 09:00N 40°25' W 073°60'0 0.0
2017-Nov-17 08:30N 40°25' W 073°60'0 0.0
2017-Nov-17 08:00N 40°25' W 073°60'0 0.0
2017-Nov-17 07:30N 40°25' W 073°60'0 0.0
2017-Nov-17 07:00N 40°25' W 073°60'0 0.0
2017-Nov-17 06:29N 40°25' W 073°60'0 0.0
2017-Nov-17 06:00N 40°25' W 073°60'0 0.0
2017-Nov-17 05:28N 40°25' W 073°60'0 0.0
2017-Nov-17 04:59N 40°25' W 073°60'0 0.0
2017-Nov-17 04:30N 40°25' W 073°60'0 0.0
2017-Nov-17 04:00N 40°25' W 073°60'0 0.0
2017-Nov-17 03:29N 40°25' W 073°60'0 0.0
2017-Nov-17 03:00N 40°25' W 073°60'0 0.0
2017-Nov-17 02:29N 40°25' W 073°60'0 0.0
2017-Nov-17 01:57N 40°25' W 073°60'0 0.0
2017-Nov-17 01:30N 40°25' W 073°60'0 0.0
2017-Nov-17 00:54N 40°25' W 073°60'0 0.0
2017-Nov-17 00:25N 40°25' W 073°60'0 0.0
2017-Nov-16 23:57N 40°25' W 073°60'0 0.2
2017-Nov-16 23:30N 40°25' W 073°60'612.7
2017-Nov-16 23:00N 40°31' W 074°02'1224.7
2017-Nov-16 22:31N 40°43' W 074°02'1 1.8
2017-Nov-16 22:01N 40°42' W 074°02'1326.3
2017-Nov-16 21:30N 40°29' W 074°02'2 3.6
2017-Nov-16 21:00N 40°31' W 074°02'1224.6
2017-Nov-16 20:30N 40°43' W 074°02'1 2.0
2017-Nov-16 20:01N 40°44' W 074°01'2 3.6
2017-Nov-16 19:30N 40°42' W 074°00'0 0.0
2017-Nov-16 19:00N 40°42' W 074°00'0 0.0
2017-Nov-16 18:31N 40°42' W 074°00'0 0.0
2017-Nov-16 18:01N 40°42' W 074°00'0 0.0
2017-Nov-16 17:31N 40°42' W 074°00'0 0.0
2017-Nov-16 17:00N 40°42' W 074°00'0 0.0
2017-Nov-16 16:30N 40°42' W 074°00'0 0.0
2017-Nov-16 16:01N 40°42' W 074°00'0 0.0
2017-Nov-16 15:31N 40°42' W 074°00'0 0.0
2017-Nov-16 15:00N 40°42' W 074°00'0 0.0
2017-Nov-16 14:30N 40°42' W 074°00'0 0.0
2017-Nov-16 14:01N 40°42' W 074°00'1 2.7
2017-Nov-16 13:31N 40°43' W 074°02'1223.4
2017-Nov-16 13:00N 40°31' W 074°02'3 6.3
2017-Nov-16 12:30N 40°28' W 074°02'1325.9
2017-Nov-16 12:01N 40°40' W 074°03'2 5.0
2017-Nov-16 11:30N 40°43' W 074°02'1224.4
2017-Nov-16 11:00N 40°30' W 074°02'6 8.3
2017-Nov-16 10:15N 40°25' W 073°60'0 0.0
2017-Nov-16 09:51N 40°25' W 073°60'0 0.0
2017-Nov-16 09:28N 40°25' W 073°60'0 0.0
2017-Nov-16 08:56N 40°25' W 073°60'0 0.0
2017-Nov-16 08:30N 40°25' W 073°60'0 0.0
2017-Nov-16 07:55N 40°25' W 073°60'0 0.0
2017-Nov-16 07:07N 40°25' W 073°60'0 0.0
2017-Nov-16 06:53N 40°25' W 073°60'0 0.0
2017-Nov-16 06:29N 40°25' W 073°60'0 0.0
2017-Nov-16 05:57N 40°25' W 073°60'0 0.0
2017-Nov-16 05:30N 40°25' W 073°60'0 0.0
2017-Nov-16 03:17N 40°25' W 073°60'0 0.0
2017-Nov-16 03:00N 40°25' W 073°60'0 0.0
2017-Nov-16 02:24N 40°25' W 073°60'0 0.0
2017-Nov-16 01:41N 40°25' W 073°60'0 0.0
2017-Nov-15 23:55N 40°25' W 073°60'0 0.2
2017-Nov-15 23:30N 40°25' W 073°60'612.3
2017-Nov-15 23:00N 40°30' W 074°02'1225.1
2017-Nov-15 22:31N 40°43' W 074°02'0 0.7
2017-Nov-15 22:01N 40°43' W 074°02'1427.2
2017-Nov-15 21:30N 40°29' W 074°02'3 4.9
2017-Nov-15 21:00N 40°31' W 074°02'1123.6
2017-Nov-15 20:31N 40°43' W 074°02'1 2.5
2017-Nov-15 20:01N 40°44' W 074°01'2 4.0
2017-Nov-15 19:30N 40°42' W 074°00'0 0.0
2017-Nov-15 19:00N 40°42' W 074°00'0 0.0
2017-Nov-15 18:30N 40°42' W 074°00'0 0.0
2017-Nov-15 18:00N 40°42' W 074°00'0 0.0
2017-Nov-15 17:30N 40°42' W 074°00'0 0.0
2017-Nov-15 17:00N 40°42' W 074°00'0 0.0
2017-Nov-15 16:30N 40°42' W 074°00'0 0.0
2017-Nov-15 16:00N 40°42' W 074°00'0 0.0
2017-Nov-15 15:30N 40°42' W 074°00'0 0.0
2017-Nov-15 15:00N 40°42' W 074°00'0 0.0
2017-Nov-15 14:31N 40°42' W 074°00'0 0.0
2017-Nov-15 14:00N 40°42' W 074°00'1 2.5
2017-Nov-15 13:30N 40°43' W 074°02'1224.0
2017-Nov-15 13:00N 40°31' W 074°02'4 6.9
2017-Nov-15 12:30N 40°27' W 074°02'1326.5
2017-Nov-15 12:01N 40°40' W 074°03'3 5.6
2017-Nov-15 11:31N 40°43' W 074°02'1224.3
2017-Nov-15 11:00N 40°31' W 074°02'612.4
2017-Nov-15 10:30N 40°25' W 073°60'0 0.0
2017-Nov-15 10:00N 40°25' W 073°60'0 0.0
2017-Nov-15 09:30N 40°25' W 073°60'0 0.0
2017-Nov-15 09:00N 40°25' W 073°60'0 0.0
2017-Nov-15 08:30N 40°25' W 073°60'0 0.0
2017-Nov-15 08:00N 40°25' W 073°60'0 0.0
2017-Nov-15 07:30N 40°25' W 073°60'0 0.0
2017-Nov-15 07:00N 40°25' W 073°60'0 0.0
2017-Nov-15 06:30N 40°25' W 073°60'0 0.0
2017-Nov-15 06:00N 40°25' W 073°60'0 0.0
2017-Nov-15 05:30N 40°25' W 073°60'0 0.0
2017-Nov-15 05:00N 40°25' W 073°60'0 0.0
2017-Nov-15 04:30N 40°25' W 073°60'0 0.0
2017-Nov-15 04:00N 40°25' W 073°60'0 0.0
2017-Nov-15 03:30N 40°25' W 073°60'0 0.0
2017-Nov-15 03:00N 40°25' W 073°60'0 0.0
2017-Nov-15 02:30N 40°25' W 073°60'0 0.0
2017-Nov-15 02:00N 40°25' W 073°60'0 0.0
2017-Nov-15 01:30N 40°25' W 073°60'0 0.0
2017-Nov-15 01:00N 40°25' W 073°60'0 0.0
2017-Nov-15 00:30N 40°25' W 073°60'0 0.1
2017-Nov-15 00:00N 40°25' W 073°60'0 0.0
2017-Nov-14 23:30N 40°25' W 073°60'611.7
2017-Nov-14 23:00N 40°30' W 074°02'1325.6
2017-Nov-14 22:30N 40°43' W 074°02'1 1.6
2017-Nov-14 22:00N 40°42' W 074°02'1426.6
2017-Nov-14 21:30N 40°28' W 074°02'3 5.1
2017-Nov-14 21:00N 40°31' W 074°02'1224.1
2017-Nov-14 20:30N 40°43' W 074°02'1 2.6
2017-Nov-14 20:01N 40°44' W 074°02'2 4.2
2017-Nov-14 19:30N 40°42' W 074°00'0 0.0
2017-Nov-14 19:00N 40°42' W 074°00'0 0.0
2017-Nov-14 18:30N 40°42' W 074°00'0 0.0
2017-Nov-14 18:00N 40°42' W 074°00'0 0.0
2017-Nov-14 17:30N 40°42' W 074°00'0 0.0
2017-Nov-14 17:00N 40°42' W 074°00'0 0.0
2017-Nov-14 16:30N 40°42' W 074°00'0 0.0
2017-Nov-14 16:00N 40°42' W 074°00'0 0.0
2017-Nov-14 15:30N 40°42' W 074°00'0 0.0
2017-Nov-14 15:00N 40°42' W 074°00'0 0.0
2017-Nov-14 14:30N 40°42' W 074°00'0 0.0
2017-Nov-14 14:00N 40°42' W 074°00'1 2.6
2017-Nov-14 13:31N 40°43' W 074°02'1224.0
2017-Nov-14 13:00N 40°31' W 074°02'4 7.7
2017-Nov-14 12:30N 40°27' W 074°02'1427.7
2017-Nov-14 12:01N 40°40' W 074°02'2 5.0
2017-Nov-14 11:30N 40°38' W 074°03'1325.5
2017-Nov-14 11:00N 40°25' W 074°02'2 3.6
2017-Nov-14 10:30N 40°25' W 073°60'0 0.0
2017-Nov-13 23:32N 40°25' W 073°60'0 1.4
2017-Nov-13 23:30N 40°25' W 073°60'713.8
2017-Nov-13 23:00N 40°31' W 074°02'1223.2
2017-Nov-13 22:30N 40°43' W 074°02'1 1.4
2017-Nov-13 22:01N 40°42' W 074°02'18 0.9
2017-Nov-13 02:00N 40°25' W 073°60'0 0.0
2017-Nov-13 01:30N 40°25' W 073°60'0 0.0
2017-Nov-13 01:00N 40°25' W 073°60'0 0.0
2017-Nov-13 00:30N 40°25' W 073°60'0 0.0
2017-Nov-12 23:54N 40°25' W 073°60'0 0.0
2017-Nov-12 23:28N 40°25' W 073°60'0 0.0
2017-Nov-12 22:57N 40°25' W 073°60'0 0.0
2017-Nov-12 22:30N 40°25' W 073°60'0 0.0
2017-Nov-12 21:20N 40°25' W 073°60'0 0.0
2017-Nov-12 21:00N 40°25' W 073°60'0 0.0
2017-Nov-12 20:28N 40°25' W 073°60'0 0.0
2017-Nov-12 19:56N 40°25' W 073°60'0 0.0
2017-Nov-12 19:27N 40°25' W 073°60'0 0.0
2017-Nov-12 19:00N 40°25' W 073°60'0 0.0
2017-Nov-12 18:24N 40°25' W 073°60'0 0.0
2017-Nov-12 17:55N 40°25' W 073°60'0 0.0
2017-Nov-12 17:30N 40°25' W 073°60'0 0.0
2017-Nov-12 16:59N 40°25' W 073°60'0 0.0
2017-Nov-12 16:23N 40°25' W 073°60'0 0.0
2017-Nov-12 15:57N 40°25' W 073°60'0 0.0
2017-Nov-12 15:29N 40°25' W 073°60'0 0.0
2017-Nov-12 15:00N 40°25' W 073°60'0 0.0
2017-Nov-12 14:30N 40°25' W 073°60'0 0.0
2017-Nov-12 14:00N 40°25' W 073°60'0 0.0
2017-Nov-12 13:30N 40°25' W 073°60'0 0.0
2017-Nov-12 13:00N 40°25' W 073°60'0 0.0
2017-Nov-12 12:30N 40°25' W 073°60'0 0.0
2017-Nov-12 12:00N 40°25' W 073°60'0 0.0
2017-Nov-12 11:30N 40°25' W 073°60'0 0.0
2017-Nov-12 11:00N 40°25' W 073°60'0 0.0
2017-Nov-12 10:30N 40°25' W 073°60'0 0.0
2017-Nov-12 10:00N 40°25' W 073°60'0 0.0
2017-Nov-12 09:30N 40°25' W 073°60'0 0.0
2017-Nov-12 09:00N 40°25' W 073°60'0 0.0
2017-Nov-12 08:30N 40°25' W 073°60'0 0.0
2017-Nov-12 08:00N 40°25' W 073°60'0 0.0
2017-Nov-12 07:29N 40°25' W 073°60'0 0.0
2017-Nov-12 07:00N 40°25' W 073°60'0 0.0
2017-Nov-12 06:30N 40°25' W 073°60'0 0.0
2017-Nov-12 06:00N 40°25' W 073°60'0 0.0
2017-Nov-12 05:30N 40°25' W 073°60'0 0.0
2017-Nov-12 05:00N 40°25' W 073°60'0 0.0
2017-Nov-12 04:30N 40°25' W 073°60'0 0.0
2017-Nov-12 04:00N 40°25' W 073°60'0 0.0
2017-Nov-12 03:30N 40°25' W 073°60'0 0.0
2017-Nov-12 03:00N 40°25' W 073°60'0 0.0
2017-Nov-12 02:30N 40°25' W 073°60'0 0.0
2017-Nov-12 01:59N 40°25' W 073°60'0 0.0
2017-Nov-12 01:30N 40°25' W 073°60'0 0.0
2017-Nov-12 01:00N 40°25' W 073°60'0 0.0
2017-Nov-12 00:30N 40°25' W 073°60'0 0.0
2017-Nov-12 00:00N 40°25' W 073°60'0 0.0
2017-Nov-11 23:29N 40°25' W 073°60'0 0.0
2017-Nov-11 23:00N 40°25' W 073°60'0 0.0
2017-Nov-11 22:30N 40°25' W 073°60'0 0.0
2017-Nov-11 21:59N 40°25' W 073°60'0 0.0
2017-Nov-11 21:30N 40°25' W 073°60'0 0.0
2017-Nov-11 20:59N 40°25' W 073°60'0 0.0
2017-Nov-11 20:29N 40°25' W 073°60'0 0.0
2017-Nov-11 19:57N 40°25' W 073°60'0 0.0
2017-Nov-11 18:50N 40°25' W 073°60'0 0.0
2017-Nov-11 18:28N 40°25' W 073°60'0 0.0
2017-Nov-11 18:01N 40°25' W 073°60'0 0.0
2017-Nov-11 17:28N 40°25' W 073°60'0 0.0
2017-Nov-11 16:55N 40°25' W 073°60'0 0.0
2017-Nov-11 16:22N 40°25' W 073°60'0 0.0
2017-Nov-11 16:00N 40°25' W 073°60'0 0.0
2017-Nov-11 15:30N 40°25' W 073°60'0 0.0
2017-Nov-11 15:00N 40°25' W 073°60'0 0.0
2017-Nov-11 14:30N 40°25' W 073°60'0 0.0
2017-Nov-11 14:00N 40°25' W 073°60'0 0.0
2017-Nov-11 13:30N 40°25' W 073°60'0 0.0
2017-Nov-11 12:59N 40°25' W 073°60'0 0.0
2017-Nov-11 12:07N 40°25' W 073°60'0 0.0
2017-Nov-11 12:00N 40°25' W 073°60'0 0.0
2017-Nov-11 11:15N 40°25' W 073°60'0 0.0
2017-Nov-11 10:21N 40°25' W 073°60'0 0.0
2017-Nov-11 09:47N 40°25' W 073°60'0 0.0
2017-Nov-11 09:19N 40°25' W 073°60'0 0.0
2017-Nov-11 08:17N 40°25' W 073°60'0 0.0
2017-Nov-11 07:15N 40°25' W 073°60'0 0.0
2017-Nov-11 07:01N 40°25' W 073°60'0 0.0
2017-Nov-11 06:29N 40°25' W 073°60'0 0.0
2017-Nov-11 06:00N 40°25' W 073°60'0 0.0
2017-Nov-11 05:31N 40°25' W 073°60'0 0.0
2017-Nov-11 04:48N 40°25' W 073°60'0 0.0
2017-Nov-11 04:31N 40°25' W 073°60'0 0.0
2017-Nov-11 03:59N 40°25' W 073°60'0 0.0
2017-Nov-11 03:29N 40°25' W 073°60'0 0.0
2017-Nov-11 02:59N 40°25' W 073°60'0 0.0
2017-Nov-11 02:01N 40°25' W 073°60'0 0.0
2017-Nov-11 01:28N 40°25' W 073°60'0 0.0
2017-Nov-11 00:57N 40°25' W 073°60'0 0.0
2017-Nov-11 00:29N 40°25' W 073°60'0 0.0
2017-Nov-10 23:59N 40°25' W 073°60'0 0.7
2017-Nov-10 23:30N 40°25' W 074°00'611.6
2017-Nov-10 23:00N 40°30' W 074°02'1224.9
2017-Nov-10 22:30N 40°43' W 074°02'2 3.2
2017-Nov-10 22:01N 40°41' W 074°02'1324.7
2017-Nov-10 21:30N 40°29' W 074°02'2 4.6
2017-Nov-10 21:00N 40°31' W 074°02'1224.2
2017-Nov-10 20:30N 40°43' W 074°02'1 2.7
2017-Nov-10 20:00N 40°42' W 074°00'0 0.0
2017-Nov-10 19:30N 40°42' W 074°00'0 0.0
2017-Nov-10 19:00N 40°42' W 074°00'0 0.0
2017-Nov-10 18:30N 40°42' W 074°00'0 0.0
2017-Nov-10 18:00N 40°42' W 074°00'0 0.0
2017-Nov-10 17:30N 40°42' W 074°00'0 0.0
2017-Nov-10 17:00N 40°42' W 074°00'0 0.0
2017-Nov-10 16:30N 40°42' W 074°00'0 0.0
2017-Nov-10 16:00N 40°42' W 074°00'0 0.0
2017-Nov-10 15:30N 40°42' W 074°00'0 0.0
2017-Nov-10 15:00N 40°42' W 074°00'0 0.0
2017-Nov-10 14:31N 40°42' W 074°00'0 0.0
2017-Nov-10 14:00N 40°42' W 074°00'1 2.0
2017-Nov-10 13:31N 40°42' W 074°02'1223.6
2017-Nov-10 13:00N 40°30' W 074°02'5 9.7
2017-Nov-10 12:30N 40°26' W 074°02'1428.3
2017-Nov-10 12:01N 40°40' W 074°03'2 4.9
2017-Nov-10 11:31N 40°42' W 074°02'1223.6
2017-Nov-10 11:00N 40°30' W 074°02'6 1.0
2017-Nov-10 05:35N 40°25' W 073°60'0 0.0
2017-Nov-10 05:24N 40°25' W 073°60'0 0.0
2017-Nov-10 04:45N 40°25' W 073°60'0 0.0
2017-Nov-10 04:29N 40°25' W 073°60'0 0.0
2017-Nov-10 03:58N 40°25' W 073°60'0 0.0
2017-Nov-10 03:30N 40°25' W 073°60'0 0.0
2017-Nov-10 03:00N 40°25' W 073°60'0 0.0
2017-Nov-10 02:30N 40°25' W 073°60'0 0.0
2017-Nov-10 02:00N 40°25' W 073°60'0 0.0
2017-Nov-10 01:30N 40°25' W 073°60'0 0.0
2017-Nov-10 01:00N 40°25' W 073°60'0 0.0
2017-Nov-10 00:30N 40°25' W 073°60'0 0.0
2017-Nov-10 00:00N 40°25' W 073°60'0 0.1
2017-Nov-09 23:30N 40°25' W 073°60'611.3
2017-Nov-09 23:00N 40°30' W 074°02'1326.0
2017-Nov-09 22:30N 40°43' W 074°02'2 3.4
2017-Nov-09 22:01N 40°41' W 074°02'1325.1
2017-Nov-09 21:30N 40°28' W 074°02'3 5.3
2017-Nov-09 21:00N 40°31' W 074°02'1224.3
2017-Nov-09 20:30N 40°43' W 074°02'1 2.6
2017-Nov-09 20:00N 40°42' W 074°00'0 0.0
2017-Nov-09 19:30N 40°42' W 074°00'0 0.0
2017-Nov-09 19:00N 40°42' W 074°00'0 0.0
2017-Nov-09 18:30N 40°42' W 074°00'0 0.0
2017-Nov-09 18:00N 40°42' W 074°00'0 0.0
2017-Nov-09 17:30N 40°42' W 074°00'0 0.0
2017-Nov-09 17:00N 40°42' W 074°00'0 0.0
2017-Nov-09 16:30N 40°42' W 074°00'0 0.0
2017-Nov-09 16:00N 40°42' W 074°00'0 0.0
2017-Nov-09 15:30N 40°42' W 074°00'0 0.0
2017-Nov-09 15:00N 40°42' W 074°00'0 0.0
2017-Nov-09 14:30N 40°42' W 074°00'0 0.0
2017-Nov-09 14:00N 40°42' W 074°00'1 2.1
2017-Nov-09 13:31N 40°43' W 074°02'1324.7
2017-Nov-09 12:59N 40°30' W 074°02'4 7.6
2017-Nov-09 12:30N 40°26' W 074°02'1428.2
2017-Nov-09 12:01N 40°40' W 074°03'3 5.1
2017-Nov-09 11:31N 40°42' W 074°02'1224.0
2017-Nov-09 11:00N 40°30' W 074°02'611.8
2017-Nov-09 10:30N 40°25' W 073°60'0 0.0
2017-Nov-09 09:59N 40°25' W 073°60'0 0.0
2017-Nov-09 09:23N 40°25' W 073°60'0 0.0
2017-Nov-09 08:55N 40°25' W 073°60'0 0.0
2017-Nov-09 08:24N 40°25' W 073°60'0 0.0
2017-Nov-09 07:51N 40°25' W 073°60'0 0.0
2017-Nov-09 07:21N 40°25' W 073°60'0 0.0
2017-Nov-09 06:55N 40°25' W 073°60'0 0.0
2017-Nov-09 06:30N 40°25' W 073°60'0 0.0
2017-Nov-09 01:12N 40°25' W 073°60'0 0.0
2017-Nov-09 01:00N 40°25' W 073°60'0 0.0
2017-Nov-09 00:30N 40°25' W 073°60'0 0.0
2017-Nov-09 00:00N 40°25' W 073°60'0 0.4
2017-Nov-08 23:30N 40°25' W 073°60'714.7
2017-Nov-08 23:00N 40°32' W 074°02'1122.4
2017-Nov-08 22:31N 40°43' W 074°02'2 3.7
2017-Nov-08 22:01N 40°41' W 074°02'1224.8
2017-Nov-08 21:30N 40°29' W 074°02'1 2.2
2017-Nov-08 21:00N 40°30' W 074°02'1326.5
2017-Nov-08 20:31N 40°43' W 074°02'1 1.6
2017-Nov-08 20:01N 40°42' W 074°02'1 1.7
2017-Nov-08 19:30N 40°42' W 074°00'0 0.0
2017-Nov-08 19:00N 40°42' W 074°00'0 0.0
2017-Nov-08 18:30N 40°42' W 074°00'0 0.0
2017-Nov-08 18:00N 40°42' W 074°00'0 0.0
2017-Nov-08 17:30N 40°42' W 074°00'0 0.0
2017-Nov-08 17:00N 40°42' W 074°00'0 0.0
2017-Nov-08 16:30N 40°42' W 074°00'0 0.0
2017-Nov-08 16:00N 40°42' W 074°00'0 0.0
2017-Nov-08 15:30N 40°42' W 074°00'0 0.0
2017-Nov-08 15:00N 40°42' W 074°00'0 0.0
2017-Nov-08 14:30N 40°42' W 074°00'0 0.0
2017-Nov-08 14:00N 40°42' W 074°00'1 2.3
2017-Nov-08 13:31N 40°43' W 074°02'1224.5
2017-Nov-08 13:00N 40°30' W 074°02'4 8.0
2017-Nov-08 12:30N 40°26' W 074°02'1427.5
2017-Nov-08 12:01N 40°40' W 074°03'2 3.7
2017-Nov-08 11:31N 40°42' W 074°02'1224.0
2017-Nov-08 11:00N 40°30' W 074°02'5 9.9
2017-Nov-08 10:28N 40°25' W 073°60'0 0.0
2017-Nov-08 10:00N 40°25' W 073°60'0 0.0
2017-Nov-08 09:30N 40°25' W 073°60'0 0.0
2017-Nov-08 09:00N 40°25' W 073°60'0 0.0
2017-Nov-08 08:30N 40°25' W 073°60'0 0.0
2017-Nov-08 08:00N 40°25' W 073°60'0 0.0
2017-Nov-08 07:28N 40°25' W 073°60'0 0.0
2017-Nov-08 06:59N 40°25' W 073°60'0 0.0
2017-Nov-08 06:28N 40°25' W 073°60'0 0.0
2017-Nov-08 04:55N 40°25' W 073°60'0 0.0
2017-Nov-08 04:19N 40°25' W 073°60'0 0.0
2017-Nov-08 03:57N 40°25' W 073°60'0 0.0
2017-Nov-08 03:15N 40°25' W 073°60'0 0.0
2017-Nov-08 02:36N 40°25' W 073°60'0 0.0
2017-Nov-08 02:23N 40°25' W 073°60'0 0.0
2017-Nov-08 00:45N 40°25' W 073°60'0 0.0
2017-Nov-08 00:30N 40°25' W 073°60'0 0.0
2017-Nov-08 00:00N 40°25' W 073°60'1 2.7
2017-Nov-07 23:30N 40°25' W 074°01'  

Dump ship's entire track history